This is the latest recevied weather packets stored in our database for station/object DB0LS-15. If no packets are shown the sender has not sent any weather packets the latest 10 day(s).
| Time | Temp. | Humidity | Pressure | Rain* | Wind** | Luminosity | Snow |
|---|---|---|---|---|---|---|---|
| 1777950331 | 14.44° C | 83% | 991.6 hPa | 0 mm | - | - | - |
| 1777949727 | 14.44° C | 84% | 991.7 hPa | 0 mm | - | - | - |
| 1777949123 | 14.44° C | 84% | 991.8 hPa | 0 mm | - | - | - |
| 1777948520 | 14.44° C | 85% | 991.8 hPa | 0 mm | - | - | - |
| 1777947916 | 14.44° C | 84% | 991.9 hPa | 0 mm | - | - | - |
| 1777947372 | 16.11° C | 77% | 991.9 hPa | 0 mm | - | - | - |
| 1777946768 | 16.11° C | 77% | 991.9 hPa | 0 mm | - | - | - |
| 1777946165 | 16.11° C | 75% | 992 hPa | 0 mm | - | - | - |
| 1777945561 | 16.11° C | 75% | 992.1 hPa | 0 mm | - | - | - |
| 1777944957 | 16.11° C | 75% | 992.2 hPa | 0 mm | - | - | - |
| 1777944353 | 16.11° C | 75% | 992.1 hPa | 0 mm | - | - | - |
| 1777943749 | 16.11° C | 76% | 992.2 hPa | 0 mm | - | - | - |
| 1777943146 | 16.11° C | 76% | 992.4 hPa | 0 mm | - | - | - |
| 1777942542 | 16.11° C | 76% | 992.4 hPa | 0 mm | - | - | - |
| 1777941938 | 15.56° C | 79% | 992.5 hPa | 0 mm | - | - | - |
| 1777941334 | 15.56° C | 79% | 992.5 hPa | 0 mm | - | - | - |
| 1777940730 | 15.56° C | 79% | 992.7 hPa | 0 mm | - | - | - |
| 1777940127 | 15° C | 80% | 992.7 hPa | 0 mm | - | - | - |
| 1777939523 | 15° C | 81% | 993 hPa | 0 mm | - | - | - |
| 1777938919 | 15° C | 80% | 993.1 hPa | 0 mm | - | - | - |
| 1777938315 | 15° C | 80% | 993.1 hPa | 0 mm | - | - | - |
| 1777937772 | 15° C | 80% | 993 hPa | 0 mm | - | - | - |
| 1777937168 | 15.56° C | 76% | 993 hPa | 0 mm | - | - | - |
| 1777936564 | 16.67° C | 71% | 993.2 hPa | 0 mm | - | - | - |
| 1777935961 | 16.67° C | 71% | 993.2 hPa | 0 mm | - | - | - |
* Rain latest hour (hover to see other rain measurements)
** Current wind speed in m/s (hover to see current wind gust speed)